sensor_id;sensor_type;location;lat;lon;timestamp;temperature;humidity
56538;DHT22;42435;53.292;6.000;2022-08-03T00:01:45;20.90;78.00
56538;DHT22;42435;53.292;6.000;2022-08-03T00:04:11;20.80;78.10
56538;DHT22;42435;53.292;6.000;2022-08-03T00:06:37;20.80;78.10
56538;DHT22;42435;53.292;6.000;2022-08-03T00:09:05;20.80;78.10
56538;DHT22;42435;53.292;6.000;2022-08-03T00:11:31;20.80;78.40
56538;DHT22;42435;53.292;6.000;2022-08-03T00:13:57;20.80;78.50
56538;DHT22;42435;53.292;6.000;2022-08-03T00:16:22;20.80;78.50
56538;DHT22;42435;53.292;6.000;2022-08-03T00:18:52;20.80;78.50
56538;DHT22;42435;53.292;6.000;2022-08-03T00:21:18;20.70;78.50
56538;DHT22;42435;53.292;6.000;2022-08-03T00:23:43;20.80;78.50
56538;DHT22;42435;53.292;6.000;2022-08-03T00:26:09;20.70;78.60
56538;DHT22;42435;53.292;6.000;2022-08-03T00:28:34;20.70;78.70
56538;DHT22;42435;53.292;6.000;2022-08-03T00:31:00;20.70;78.80
56538;DHT22;42435;53.292;6.000;2022-08-03T00:33:26;20.70;78.70
56538;DHT22;42435;53.292;6.000;2022-08-03T00:35:52;20.70;78.90
56538;DHT22;42435;53.292;6.000;2022-08-03T00:38:18;20.70;78.90
56538;DHT22;42435;53.292;6.000;2022-08-03T00:40:44;20.70;78.90
56538;DHT22;42435;53.292;6.000;2022-08-03T00:43:10;20.70;78.90
56538;DHT22;42435;53.292;6.000;2022-08-03T00:45:38;20.70;79.10
56538;DHT22;42435;53.292;6.000;2022-08-03T00:48:06;20.70;79.10
56538;DHT22;42435;53.292;6.000;2022-08-03T00:50:34;20.60;79.30
56538;DHT22;42435;53.292;6.000;2022-08-03T00:53:01;20.60;79.40
56538;DHT22;42435;53.292;6.000;2022-08-03T00:55:30;20.70;79.40
56538;DHT22;42435;53.292;6.000;2022-08-03T00:57:59;20.60;79.40
56538;DHT22;42435;53.292;6.000;2022-08-03T01:00:26;20.60;79.50
56538;DHT22;42435;53.292;6.000;2022-08-03T01:02:55;20.60;79.60
56538;DHT22;42435;53.292;6.000;2022-08-03T01:05:21;20.60;79.50
56538;DHT22;42435;53.292;6.000;2022-08-03T01:10:38;20.60;79.60
56538;DHT22;42435;53.292;6.000;2022-08-03T01:21:00;20.50;79.60
56538;DHT22;42435;53.292;6.000;2022-08-03T01:31:51;20.50;79.80
56538;DHT22;42435;53.292;6.000;2022-08-03T01:34:18;20.40;79.90
56538;DHT22;42435;53.292;6.000;2022-08-03T01:36:51;20.40;79.90
56538;DHT22;42435;53.292;6.000;2022-08-03T01:39:18;20.40;80.10
56538;DHT22;42435;53.292;6.000;2022-08-03T01:41:52;20.40;80.10
56538;DHT22;42435;53.292;6.000;2022-08-03T01:44:20;20.40;80.30
56538;DHT22;42435;53.292;6.000;2022-08-03T01:46:47;20.40;80.30
56538;DHT22;42435;53.292;6.000;2022-08-03T01:49:16;20.40;80.20
56538;DHT22;42435;53.292;6.000;2022-08-03T01:51:44;20.40;80.30
56538;DHT22;42435;53.292;6.000;2022-08-03T01:54:12;20.40;80.40
56538;DHT22;42435;53.292;6.000;2022-08-03T01:56:50;20.40;80.40
56538;DHT22;42435;53.292;6.000;2022-08-03T01:59:18;20.40;80.70
56538;DHT22;42435;53.292;6.000;2022-08-03T02:01:45;20.40;80.40
56538;DHT22;42435;53.292;6.000;2022-08-03T02:04:13;20.40;80.40
56538;DHT22;42435;53.292;6.000;2022-08-03T02:06:41;20.40;80.60
56538;DHT22;42435;53.292;6.000;2022-08-03T02:09:08;20.40;80.60
56538;DHT22;42435;53.292;6.000;2022-08-03T02:11:38;20.40;80.70
56538;DHT22;42435;53.292;6.000;2022-08-03T02:14:05;20.40;80.50
56538;DHT22;42435;53.292;6.000;2022-08-03T02:16:35;20.30;80.50
56538;DHT22;42435;53.292;6.000;2022-08-03T02:19:03;20.30;80.70
56538;DHT22;42435;53.292;6.000;2022-08-03T02:21:31;20.40;80.70
56538;DHT22;42435;53.292;6.000;2022-08-03T02:23:58;20.30;80.60
56538;DHT22;42435;53.292;6.000;2022-08-03T02:26:28;20.30;80.50
56538;DHT22;42435;53.292;6.000;2022-08-03T02:28:55;20.30;80.70
56538;DHT22;42435;53.292;6.000;2022-08-03T02:31:24;20.30;80.70
56538;DHT22;42435;53.292;6.000;2022-08-03T02:33:53;20.30;80.70
56538;DHT22;42435;53.292;6.000;2022-08-03T02:36:23;20.20;80.70
56538;DHT22;42435;53.292;6.000;2022-08-03T02:38:57;20.20;80.70
56538;DHT22;42435;53.292;6.000;2022-08-03T02:41:28;20.20;80.70
56538;DHT22;42435;53.292;6.000;2022-08-03T02:43:55;20.20;80.80
56538;DHT22;42435;53.292;6.000;2022-08-03T02:46:26;20.20;80.70
56538;DHT22;42435;53.292;6.000;2022-08-03T02:48:55;20.20;80.80
56538;DHT22;42435;53.292;6.000;2022-08-03T02:51:23;20.20;80.80
56538;DHT22;42435;53.292;6.000;2022-08-03T02:53:50;20.20;80.80
56538;DHT22;42435;53.292;6.000;2022-08-03T02:56:17;20.20;80.80
56538;DHT22;42435;53.292;6.000;2022-08-03T02:58:44;20.20;80.80
56538;DHT22;42435;53.292;6.000;2022-08-03T03:01:15;20.10;80.90
56538;DHT22;42435;53.292;6.000;2022-08-03T03:03:41;20.10;80.90
56538;DHT22;42435;53.292;6.000;2022-08-03T03:06:09;20.10;81.00
56538;DHT22;42435;53.292;6.000;2022-08-03T03:08:36;20.10;81.00
56538;DHT22;42435;53.292;6.000;2022-08-03T03:11:02;20.10;81.00
56538;DHT22;42435;53.292;6.000;2022-08-03T03:13:29;20.10;81.00
56538;DHT22;42435;53.292;6.000;2022-08-03T03:16:02;20.10;81.10
56538;DHT22;42435;53.292;6.000;2022-08-03T03:18:31;20.10;81.20
56538;DHT22;42435;53.292;6.000;2022-08-03T03:20:58;20.00;81.10
56538;DHT22;42435;53.292;6.000;2022-08-03T03:23:25;20.10;81.20
56538;DHT22;42435;53.292;6.000;2022-08-03T03:25:53;20.00;81.20
56538;DHT22;42435;53.292;6.000;2022-08-03T03:28:21;20.00;81.30
56538;DHT22;42435;53.292;6.000;2022-08-03T03:30:48;20.00;81.30
56538;DHT22;42435;53.292;6.000;2022-08-03T03:33:13;20.00;81.30
56538;DHT22;42435;53.292;6.000;2022-08-03T03:35:42;20.00;81.30
56538;DHT22;42435;53.292;6.000;2022-08-03T03:38:11;19.90;81.30
56538;DHT22;42435;53.292;6.000;2022-08-03T03:40:37;19.90;81.40
56538;DHT22;42435;53.292;6.000;2022-08-03T03:43:07;19.90;81.40
56538;DHT22;42435;53.292;6.000;2022-08-03T03:45:34;19.90;81.40
56538;DHT22;42435;53.292;6.000;2022-08-03T03:48:00;19.90;81.40
56538;DHT22;42435;53.292;6.000;2022-08-03T03:50:27;19.90;81.50
56538;DHT22;42435;53.292;6.000;2022-08-03T03:52:52;19.90;81.50
56538;DHT22;42435;53.292;6.000;2022-08-03T03:55:18;19.90;81.40
56538;DHT22;42435;53.292;6.000;2022-08-03T03:57:44;19.90;81.50
56538;DHT22;42435;53.292;6.000;2022-08-03T04:00:12;19.90;81.40
56538;DHT22;42435;53.292;6.000;2022-08-03T04:02:38;19.90;81.40
56538;DHT22;42435;53.292;6.000;2022-08-03T04:05:04;19.90;81.40
56538;DHT22;42435;53.292;6.000;2022-08-03T04:08:17;19.80;81.50
56538;DHT22;42435;53.292;6.000;2022-08-03T04:14:07;19.80;81.70
56538;DHT22;42435;53.292;6.000;2022-08-03T04:16:36;19.80;81.50
56538;DHT22;42435;53.292;6.000;2022-08-03T04:19:13;19.80;81.50
56538;DHT22;42435;53.292;6.000;2022-08-03T04:21:42;19.90;81.70
56538;DHT22;42435;53.292;6.000;2022-08-03T04:24:09;19.80;81.60
56538;DHT22;42435;53.292;6.000;2022-08-03T04:26:39;19.90;81.70
56538;DHT22;42435;53.292;6.000;2022-08-03T04:29:06;19.90;81.60
56538;DHT22;42435;53.292;6.000;2022-08-03T04:31:34;19.90;81.60
56538;DHT22;42435;53.292;6.000;2022-08-03T04:34:01;19.90;81.70
56538;DHT22;42435;53.292;6.000;2022-08-03T04:36:30;19.90;81.60
56538;DHT22;42435;53.292;6.000;2022-08-03T04:39:07;19.90;81.70
56538;DHT22;42435;53.292;6.000;2022-08-03T04:41:35;19.90;81.70
56538;DHT22;42435;53.292;6.000;2022-08-03T04:44:01;19.90;81.60
56538;DHT22;42435;53.292;6.000;2022-08-03T04:46:34;19.90;81.50
56538;DHT22;42435;53.292;6.000;2022-08-03T04:49:05;19.90;81.60
56538;DHT22;42435;53.292;6.000;2022-08-03T04:51:31;19.90;81.60
56538;DHT22;42435;53.292;6.000;2022-08-03T04:53:59;20.00;81.50
56538;DHT22;42435;53.292;6.000;2022-08-03T04:56:27;20.00;81.50
56538;DHT22;42435;53.292;6.000;2022-08-03T04:58:56;20.00;81.50
56538;DHT22;42435;53.292;6.000;2022-08-03T05:01:21;20.10;81.60
56538;DHT22;42435;53.292;6.000;2022-08-03T05:03:47;20.10;81.50
56538;DHT22;42435;53.292;6.000;2022-08-03T05:06:13;20.10;81.50
56538;DHT22;42435;53.292;6.000;2022-08-03T05:08:39;20.20;81.50
56538;DHT22;42435;53.292;6.000;2022-08-03T05:11:04;20.20;81.50
56538;DHT22;42435;53.292;6.000;2022-08-03T05:13:30;20.30;81.40
56538;DHT22;42435;53.292;6.000;2022-08-03T05:15:56;20.30;81.40
56538;DHT22;42435;53.292;6.000;2022-08-03T05:18:21;20.30;81.40
56538;DHT22;42435;53.292;6.000;2022-08-03T05:20:47;20.40;81.40
56538;DHT22;42435;53.292;6.000;2022-08-03T05:23:13;20.40;81.30
56538;DHT22;42435;53.292;6.000;2022-08-03T05:25:38;20.40;81.40
56538;DHT22;42435;53.292;6.000;2022-08-03T05:28:07;20.40;81.40
56538;DHT22;42435;53.292;6.000;2022-08-03T05:30:32;20.50;81.30
56538;DHT22;42435;53.292;6.000;2022-08-03T05:32:58;20.60;81.30
56538;DHT22;42435;53.292;6.000;2022-08-03T05:35:27;20.60;81.20
56538;DHT22;42435;53.292;6.000;2022-08-03T05:37:53;20.70;81.10
56538;DHT22;42435;53.292;6.000;2022-08-03T05:40:21;20.70;81.00
56538;DHT22;42435;53.292;6.000;2022-08-03T05:42:47;20.70;81.00
56538;DHT22;42435;53.292;6.000;2022-08-03T05:45:15;20.80;81.00
56538;DHT22;42435;53.292;6.000;2022-08-03T05:47:44;20.90;80.90
56538;DHT22;42435;53.292;6.000;2022-08-03T05:50:11;20.90;80.80
56538;DHT22;42435;53.292;6.000;2022-08-03T05:52:37;21.00;80.80
56538;DHT22;42435;53.292;6.000;2022-08-03T05:55:12;21.10;80.80
56538;DHT22;42435;53.292;6.000;2022-08-03T05:57:38;21.20;80.60
56538;DHT22;42435;53.292;6.000;2022-08-03T06:00:08;21.30;80.50
56538;DHT22;42435;53.292;6.000;2022-08-03T06:02:34;21.50;80.30
56538;DHT22;42435;53.292;6.000;2022-08-03T06:05:00;21.80;79.70
56538;DHT22;42435;53.292;6.000;2022-08-03T06:07:26;22.20;78.40
56538;DHT22;42435;53.292;6.000;2022-08-03T06:09:52;22.70;77.10
56538;DHT22;42435;53.292;6.000;2022-08-03T06:12:17;23.20;75.60
56538;DHT22;42435;53.292;6.000;2022-08-03T06:14:43;23.80;74.10
56538;DHT22;42435;53.292;6.000;2022-08-03T06:17:09;24.10;73.10
56538;DHT22;42435;53.292;6.000;2022-08-03T06:19:37;24.40;72.30
56538;DHT22;42435;53.292;6.000;2022-08-03T06:22:03;24.60;71.60
56538;DHT22;42435;53.292;6.000;2022-08-03T06:24:29;24.70;71.60
56538;DHT22;42435;53.292;6.000;2022-08-03T06:26:57;24.70;71.70
56538;DHT22;42435;53.292;6.000;2022-08-03T06:29:23;24.80;71.50
56538;DHT22;42435;53.292;6.000;2022-08-03T06:31:55;24.80;71.40
56538;DHT22;42435;53.292;6.000;2022-08-03T06:34:21;24.90;71.40
56538;DHT22;42435;53.292;6.000;2022-08-03T06:36:46;25.00;71.20
56538;DHT22;42435;53.292;6.000;2022-08-03T06:39:14;25.00;71.10
56538;DHT22;42435;53.292;6.000;2022-08-03T06:41:39;25.10;71.10
56538;DHT22;42435;53.292;6.000;2022-08-03T06:44:05;25.30;70.60
56538;DHT22;42435;53.292;6.000;2022-08-03T06:46:31;25.40;70.30
56538;DHT22;42435;53.292;6.000;2022-08-03T06:48:56;25.30;70.40
56538;DHT22;42435;53.292;6.000;2022-08-03T06:51:22;25.30;70.50
56538;DHT22;42435;53.292;6.000;2022-08-03T06:53:48;25.40;70.40
56538;DHT22;42435;53.292;6.000;2022-08-03T06:56:14;25.50;70.40
56538;DHT22;42435;53.292;6.000;2022-08-03T06:58:39;25.60;69.80
56538;DHT22;42435;53.292;6.000;2022-08-03T07:01:11;25.60;69.70
56538;DHT22;42435;53.292;6.000;2022-08-03T07:03:37;25.70;69.60
56538;DHT22;42435;53.292;6.000;2022-08-03T07:06:08;25.80;69.60
56538;DHT22;42435;53.292;6.000;2022-08-03T07:08:33;25.90;69.40
56538;DHT22;42435;53.292;6.000;2022-08-03T07:11:01;26.10;68.90
56538;DHT22;42435;53.292;6.000;2022-08-03T07:13:27;26.40;68.30
56538;DHT22;42435;53.292;6.000;2022-08-03T07:15:52;26.50;67.80
56538;DHT22;42435;53.292;6.000;2022-08-03T07:18:18;26.60;67.70
56538;DHT22;42435;53.292;6.000;2022-08-03T07:20:44;26.60;67.50
56538;DHT22;42435;53.292;6.000;2022-08-03T07:23:09;26.60;67.00
56538;DHT22;42435;53.292;6.000;2022-08-03T07:25:35;26.40;67.30
56538;DHT22;42435;53.292;6.000;2022-08-03T07:28:01;26.30;67.80
56538;DHT22;42435;53.292;6.000;2022-08-03T07:30:26;26.30;67.90
56538;DHT22;42435;53.292;6.000;2022-08-03T07:32:55;26.30;67.80
56538;DHT22;42435;53.292;6.000;2022-08-03T07:35:20;26.40;67.60
56538;DHT22;42435;53.292;6.000;2022-08-03T07:37:47;26.50;67.50
56538;DHT22;42435;53.292;6.000;2022-08-03T07:40:12;26.80;67.10
56538;DHT22;42435;53.292;6.000;2022-08-03T07:42:38;27.00;66.30
56538;DHT22;42435;53.292;6.000;2022-08-03T07:45:04;27.20;66.00
56538;DHT22;42435;53.292;6.000;2022-08-03T07:47:30;27.50;65.30
56538;DHT22;42435;53.292;6.000;2022-08-03T07:49:56;27.70;64.90
56538;DHT22;42435;53.292;6.000;2022-08-03T07:52:22;27.90;64.20
56538;DHT22;42435;53.292;6.000;2022-08-03T07:55:06;28.00;63.70
56538;DHT22;42435;53.292;6.000;2022-08-03T07:57:33;28.20;63.20
56538;DHT22;42435;53.292;6.000;2022-08-03T07:59:59;28.20;62.90
56538;DHT22;42435;53.292;6.000;2022-08-03T08:02:24;28.40;62.40
56538;DHT22;42435;53.292;6.000;2022-08-03T08:04:50;28.40;62.20
56538;DHT22;42435;53.292;6.000;2022-08-03T08:07:16;28.20;62.30
56538;DHT22;42435;53.292;6.000;2022-08-03T08:09:42;28.00;62.60
56538;DHT22;42435;53.292;6.000;2022-08-03T08:12:07;27.70;63.30
56538;DHT22;42435;53.292;6.000;2022-08-03T08:14:34;27.50;63.80
56538;DHT22;42435;53.292;6.000;2022-08-03T08:17:00;27.70;64.10
56538;DHT22;42435;53.292;6.000;2022-08-03T08:19:26;27.90;63.50
56538;DHT22;42435;53.292;6.000;2022-08-03T08:21:52;28.10;63.00
56538;DHT22;42435;53.292;6.000;2022-08-03T08:24:17;28.40;62.30
56538;DHT22;42435;53.292;6.000;2022-08-03T08:26:43;28.60;61.90
56538;DHT22;42435;53.292;6.000;2022-08-03T08:29:11;28.80;61.30
56538;DHT22;42435;53.292;6.000;2022-08-03T08:31:37;28.90;61.20
56538;DHT22;42435;53.292;6.000;2022-08-03T08:34:03;29.10;60.50
56538;DHT22;42435;53.292;6.000;2022-08-03T08:36:31;29.00;60.10
56538;DHT22;42435;53.292;6.000;2022-08-03T08:39:01;28.90;60.60
56538;DHT22;42435;53.292;6.000;2022-08-03T08:41:27;28.90;61.00
56538;DHT22;42435;53.292;6.000;2022-08-03T08:43:53;29.10;60.60
56538;DHT22;42435;53.292;6.000;2022-08-03T08:46:19;29.40;60.00
56538;DHT22;42435;53.292;6.000;2022-08-03T08:48:48;29.40;59.60
56538;DHT22;42435;53.292;6.000;2022-08-03T08:51:16;29.50;59.30
56538;DHT22;42435;53.292;6.000;2022-08-03T08:53:46;29.60;59.20
56538;DHT22;42435;53.292;6.000;2022-08-03T08:56:14;29.70;58.90
56538;DHT22;42435;53.292;6.000;2022-08-03T08:58:50;29.70;58.80
56538;DHT22;42435;53.292;6.000;2022-08-03T09:01:19;29.90;58.20
56538;DHT22;42435;53.292;6.000;2022-08-03T09:03:48;30.00;57.70
56538;DHT22;42435;53.292;6.000;2022-08-03T09:06:15;29.90;58.00
56538;DHT22;42435;53.292;6.000;2022-08-03T09:08:41;29.90;58.00
56538;DHT22;42435;53.292;6.000;2022-08-03T09:11:07;30.10;57.70
56538;DHT22;42435;53.292;6.000;2022-08-03T09:13:33;30.30;57.60
56538;DHT22;42435;53.292;6.000;2022-08-03T09:18:39;30.80;56.30
56538;DHT22;42435;53.292;6.000;2022-08-03T09:23:52;31.00;55.90
56538;DHT22;42435;53.292;6.000;2022-08-03T09:26:19;30.90;55.80
56538;DHT22;42435;53.292;6.000;2022-08-03T09:28:44;30.60;57.10
56538;DHT22;42435;53.292;6.000;2022-08-03T09:31:10;30.40;56.80
56538;DHT22;42435;53.292;6.000;2022-08-03T09:33:46;30.20;57.30
56538;DHT22;42435;53.292;6.000;2022-08-03T09:41:44;29.50;58.70
56538;DHT22;42435;53.292;6.000;2022-08-03T09:44:11;29.70;58.50
56538;DHT22;42435;53.292;6.000;2022-08-03T09:46:55;29.70;58.00
56538;DHT22;42435;53.292;6.000;2022-08-03T09:49:21;29.90;58.10
56538;DHT22;42435;53.292;6.000;2022-08-03T09:51:50;30.10;57.50
56538;DHT22;42435;53.292;6.000;2022-08-03T09:54:25;30.20;57.10
56538;DHT22;42435;53.292;6.000;2022-08-03T09:56:51;30.30;57.00
56538;DHT22;42435;53.292;6.000;2022-08-03T09:59:31;30.40;56.70
56538;DHT22;42435;53.292;6.000;2022-08-03T10:01:58;30.60;55.90
56538;DHT22;42435;53.292;6.000;2022-08-03T10:04:27;30.70;55.60
56538;DHT22;42435;53.292;6.000;2022-08-03T10:07:03;30.70;55.50
56538;DHT22;42435;53.292;6.000;2022-08-03T10:09:29;30.90;55.10
56538;DHT22;42435;53.292;6.000;2022-08-03T10:11:54;30.90;54.80
56538;DHT22;42435;53.292;6.000;2022-08-03T10:14:21;30.80;55.00
56538;DHT22;42435;53.292;6.000;2022-08-03T10:16:48;30.80;54.90
56538;DHT22;42435;53.292;6.000;2022-08-03T10:19:15;30.80;55.00
56538;DHT22;42435;53.292;6.000;2022-08-03T10:21:54;30.80;54.80
56538;DHT22;42435;53.292;6.000;2022-08-03T10:24:24;30.90;54.60
56538;DHT22;42435;53.292;6.000;2022-08-03T10:26:52;30.80;54.60
56538;DHT22;42435;53.292;6.000;2022-08-03T10:29:23;30.90;54.60
56538;DHT22;42435;53.292;6.000;2022-08-03T10:31:54;30.90;54.10
56538;DHT22;42435;53.292;6.000;2022-08-03T10:34:25;30.80;54.50
56538;DHT22;42435;53.292;6.000;2022-08-03T10:36:52;30.90;54.70
56538;DHT22;42435;53.292;6.000;2022-08-03T10:39:26;30.90;54.10
56538;DHT22;42435;53.292;6.000;2022-08-03T10:41:53;30.90;54.10
56538;DHT22;42435;53.292;6.000;2022-08-03T10:44:23;30.90;54.00
56538;DHT22;42435;53.292;6.000;2022-08-03T10:46:50;30.70;54.40
56538;DHT22;42435;53.292;6.000;2022-08-03T10:49:17;30.40;54.90
56538;DHT22;42435;53.292;6.000;2022-08-03T10:51:45;30.20;55.40
56538;DHT22;42435;53.292;6.000;2022-08-03T10:57:01;30.20;55.50
56538;DHT22;42435;53.292;6.000;2022-08-03T11:02:12;30.20;55.80
56538;DHT22;42435;53.292;6.000;2022-08-03T11:04:39;30.00;56.00
56538;DHT22;42435;53.292;6.000;2022-08-03T11:07:22;29.90;56.30
56538;DHT22;42435;53.292;6.000;2022-08-03T11:09:51;30.10;56.30
56538;DHT22;42435;53.292;6.000;2022-08-03T11:12:20;30.00;56.20
56538;DHT22;42435;53.292;6.000;2022-08-03T11:14:48;30.00;56.20
56538;DHT22;42435;53.292;6.000;2022-08-03T11:17:13;30.00;56.50
56538;DHT22;42435;53.292;6.000;2022-08-03T11:19:44;30.20;56.30
56538;DHT22;42435;53.292;6.000;2022-08-03T11:22:10;30.20;55.80
56538;DHT22;42435;53.292;6.000;2022-08-03T11:35:13;30.80;55.00
56538;DHT22;42435;53.292;6.000;2022-08-03T11:43:01;30.90;54.60
56538;DHT22;42435;53.292;6.000;2022-08-03T11:45:27;30.70;55.00
56538;DHT22;42435;53.292;6.000;2022-08-03T11:47:54;30.70;55.00
56538;DHT22;42435;53.292;6.000;2022-08-03T11:50:20;30.70;55.10
56538;DHT22;42435;53.292;6.000;2022-08-03T11:52:47;30.60;55.30
56538;DHT22;42435;53.292;6.000;2022-08-03T11:55:14;30.70;55.20
56538;DHT22;42435;53.292;6.000;2022-08-03T11:57:41;30.70;55.30
56538;DHT22;42435;53.292;6.000;2022-08-03T12:00:24;30.80;55.00
56538;DHT22;42435;53.292;6.000;2022-08-03T12:03:19;30.70;54.50
56538;DHT22;42435;53.292;6.000;2022-08-03T12:05:50;30.60;54.90
56538;DHT22;42435;53.292;6.000;2022-08-03T12:10:53;30.60;55.20
56538;DHT22;42435;53.292;6.000;2022-08-03T12:13:20;30.60;54.70
56538;DHT22;42435;53.292;6.000;2022-08-03T12:15:54;30.70;54.40
56538;DHT22;42435;53.292;6.000;2022-08-03T12:18:21;30.80;54.30
56538;DHT22;42435;53.292;6.000;2022-08-03T12:20:49;30.80;53.90
56538;DHT22;42435;53.292;6.000;2022-08-03T12:23:15;30.60;54.20
56538;DHT22;42435;53.292;6.000;2022-08-03T12:25:42;30.80;54.10
56538;DHT22;42435;53.292;6.000;2022-08-03T12:28:19;31.00;53.50
56538;DHT22;42435;53.292;6.000;2022-08-03T12:30:49;31.10;53.10
56538;DHT22;42435;53.292;6.000;2022-08-03T12:33:17;31.20;52.90
56538;DHT22;42435;53.292;6.000;2022-08-03T12:36:09;31.40;52.60
56538;DHT22;42435;53.292;6.000;2022-08-03T12:38:38;31.50;52.50
56538;DHT22;42435;53.292;6.000;2022-08-03T12:41:08;31.50;52.50
56538;DHT22;42435;53.292;6.000;2022-08-03T12:43:48;31.50;52.70
56538;DHT22;42435;53.292;6.000;2022-08-03T12:46:18;31.60;52.50
56538;DHT22;42435;53.292;6.000;2022-08-03T12:49:06;31.70;52.50
56538;DHT22;42435;53.292;6.000;2022-08-03T12:54:24;31.90;51.70
56538;DHT22;42435;53.292;6.000;2022-08-03T12:57:01;31.90;51.50
56538;DHT22;42435;53.292;6.000;2022-08-03T12:59:32;31.90;51.30
56538;DHT22;42435;53.292;6.000;2022-08-03T13:01:58;32.00;51.00
56538;DHT22;42435;53.292;6.000;2022-08-03T13:04:36;31.90;51.00
56538;DHT22;42435;53.292;6.000;2022-08-03T13:07:08;32.00;50.90
56538;DHT22;42435;53.292;6.000;2022-08-03T13:09:41;32.10;50.70
56538;DHT22;42435;53.292;6.000;2022-08-03T13:12:16;32.20;50.60
56538;DHT22;42435;53.292;6.000;2022-08-03T13:14:44;32.00;50.60
56538;DHT22;42435;53.292;6.000;2022-08-03T13:17:10;31.90;50.80
56538;DHT22;42435;53.292;6.000;2022-08-03T13:19:45;31.80;51.50
56538;DHT22;42435;53.292;6.000;2022-08-03T13:22:12;31.80;51.00
56538;DHT22;42435;53.292;6.000;2022-08-03T13:24:40;31.90;51.20
56538;DHT22;42435;53.292;6.000;2022-08-03T13:27:05;31.90;51.50
56538;DHT22;42435;53.292;6.000;2022-08-03T13:29:35;32.00;51.10
56538;DHT22;42435;53.292;6.000;2022-08-03T13:32:08;32.00;50.90
56538;DHT22;42435;53.292;6.000;2022-08-03T13:34:40;32.00;51.00
56538;DHT22;42435;53.292;6.000;2022-08-03T13:37:08;32.20;50.50
56538;DHT22;42435;53.292;6.000;2022-08-03T13:39:39;32.20;50.00
56538;DHT22;42435;53.292;6.000;2022-08-03T13:42:05;32.10;49.90
56538;DHT22;42435;53.292;6.000;2022-08-03T13:44:36;31.90;50.30
56538;DHT22;42435;53.292;6.000;2022-08-03T13:47:03;31.90;50.50
56538;DHT22;42435;53.292;6.000;2022-08-03T13:49:36;31.90;50.60
56538;DHT22;42435;53.292;6.000;2022-08-03T13:52:02;31.90;50.60
56538;DHT22;42435;53.292;6.000;2022-08-03T13:54:27;31.70;51.10
56538;DHT22;42435;53.292;6.000;2022-08-03T13:56:54;31.70;51.40
56538;DHT22;42435;53.292;6.000;2022-08-03T13:59:27;31.90;51.20
56538;DHT22;42435;53.292;6.000;2022-08-03T14:01:53;32.00;50.80
56538;DHT22;42435;53.292;6.000;2022-08-03T14:04:21;32.10;50.40
56538;DHT22;42435;53.292;6.000;2022-08-03T14:06:47;32.00;50.70
56538;DHT22;42435;53.292;6.000;2022-08-03T14:09:15;32.00;50.60
56538;DHT22;42435;53.292;6.000;2022-08-03T14:11:41;31.90;50.70
56538;DHT22;42435;53.292;6.000;2022-08-03T14:14:08;31.80;50.90
56538;DHT22;42435;53.292;6.000;2022-08-03T14:16:35;31.70;51.10
56538;DHT22;42435;53.292;6.000;2022-08-03T14:19:00;31.80;51.00
56538;DHT22;42435;53.292;6.000;2022-08-03T14:21:29;31.90;51.00
56538;DHT22;42435;53.292;6.000;2022-08-03T14:23:57;31.90;50.70
56538;DHT22;42435;53.292;6.000;2022-08-03T14:26:25;31.90;50.80
56538;DHT22;42435;53.292;6.000;2022-08-03T14:28:54;31.90;51.00
56538;DHT22;42435;53.292;6.000;2022-08-03T14:31:23;31.90;51.20
56538;DHT22;42435;53.292;6.000;2022-08-03T14:33:57;32.00;51.10
56538;DHT22;42435;53.292;6.000;2022-08-03T14:36:26;32.00;51.10
56538;DHT22;42435;53.292;6.000;2022-08-03T14:38:51;31.90;50.70
56538;DHT22;42435;53.292;6.000;2022-08-03T14:41:20;31.80;51.00
56538;DHT22;42435;53.292;6.000;2022-08-03T14:43:51;31.90;51.10
56538;DHT22;42435;53.292;6.000;2022-08-03T14:46:16;32.10;50.60
56538;DHT22;42435;53.292;6.000;2022-08-03T14:48:42;32.20;50.30
56538;DHT22;42435;53.292;6.000;2022-08-03T14:51:08;32.10;50.30
56538;DHT22;42435;53.292;6.000;2022-08-03T14:53:34;32.20;49.80
56538;DHT22;42435;53.292;6.000;2022-08-03T14:56:00;32.10;50.10
56538;DHT22;42435;53.292;6.000;2022-08-03T15:01:48;32.00;51.60
56538;DHT22;42435;53.292;6.000;2022-08-03T15:04:34;32.00;52.00
56538;DHT22;42435;53.292;6.000;2022-08-03T15:07:04;31.90;52.70
56538;DHT22;42435;53.292;6.000;2022-08-03T15:09:40;31.80;53.10
56538;DHT22;42435;53.292;6.000;2022-08-03T15:12:09;31.60;53.10
56538;DHT22;42435;53.292;6.000;2022-08-03T15:14:38;31.50;53.30
56538;DHT22;42435;53.292;6.000;2022-08-03T15:17:11;31.40;53.60
56538;DHT22;42435;53.292;6.000;2022-08-03T15:19:39;31.30;53.70
56538;DHT22;42435;53.292;6.000;2022-08-03T15:22:11;31.00;54.00
56538;DHT22;42435;53.292;6.000;2022-08-03T15:24:43;30.80;54.60
56538;DHT22;42435;53.292;6.000;2022-08-03T15:27:11;30.80;54.80
56538;DHT22;42435;53.292;6.000;2022-08-03T15:29:41;30.70;55.10
56538;DHT22;42435;53.292;6.000;2022-08-03T15:32:15;30.60;55.20
56538;DHT22;42435;53.292;6.000;2022-08-03T15:34:43;30.70;55.30
56538;DHT22;42435;53.292;6.000;2022-08-03T15:37:17;30.70;55.40
56538;DHT22;42435;53.292;6.000;2022-08-03T15:39:55;30.70;55.20
56538;DHT22;42435;53.292;6.000;2022-08-03T15:42:27;30.60;55.40
56538;DHT22;42435;53.292;6.000;2022-08-03T15:44:55;30.60;55.70
56538;DHT22;42435;53.292;6.000;2022-08-03T15:47:20;30.60;55.80
56538;DHT22;42435;53.292;6.000;2022-08-03T15:49:46;30.60;55.50
56538;DHT22;42435;53.292;6.000;2022-08-03T15:52:12;30.50;55.50
56538;DHT22;42435;53.292;6.000;2022-08-03T15:54:40;30.40;55.60
56538;DHT22;42435;53.292;6.000;2022-08-03T15:57:11;30.40;55.80
56538;DHT22;42435;53.292;6.000;2022-08-03T15:59:40;30.40;55.80
56538;DHT22;42435;53.292;6.000;2022-08-03T16:02:09;30.30;56.20
56538;DHT22;42435;53.292;6.000;2022-08-03T16:04:34;30.30;56.20
56538;DHT22;42435;53.292;6.000;2022-08-03T16:07:00;30.20;56.50
56538;DHT22;42435;53.292;6.000;2022-08-03T16:09:28;30.20;56.40
56538;DHT22;42435;53.292;6.000;2022-08-03T16:11:54;30.10;56.60
56538;DHT22;42435;53.292;6.000;2022-08-03T16:14:22;30.10;56.40
56538;DHT22;42435;53.292;6.000;2022-08-03T16:16:49;30.10;56.60
56538;DHT22;42435;53.292;6.000;2022-08-03T16:19:18;30.10;56.50
56538;DHT22;42435;53.292;6.000;2022-08-03T16:21:46;30.20;56.40
56538;DHT22;42435;53.292;6.000;2022-08-03T16:24:19;30.20;56.30
56538;DHT22;42435;53.292;6.000;2022-08-03T16:26:45;30.10;56.30
56538;DHT22;42435;53.292;6.000;2022-08-03T16:29:17;30.00;56.50
56538;DHT22;42435;53.292;6.000;2022-08-03T16:31:45;30.00;56.60
56538;DHT22;42435;53.292;6.000;2022-08-03T16:34:11;29.90;56.50
56538;DHT22;42435;53.292;6.000;2022-08-03T16:36:36;29.70;57.10
56538;DHT22;42435;53.292;6.000;2022-08-03T16:39:02;29.60;57.10
56538;DHT22;42435;53.292;6.000;2022-08-03T16:41:28;29.50;57.20